Stations météo

Publicité
Salsburgh, Grande-Bretagne (99024): Température de l'air & dewpoint: 21.06.2019 11:00:00 - 27.06.2019 11:00:00 (BST)Salsburgh, Grande-Bretagne (99024): Vitesse du vent & gusts: 21.06.2019 11:00:00 - 27.06.2019 11:00:00 (BST)Salsburgh, Grande-Bretagne (99024): Direction du vent: 21.06.2019 11:00:00 - 27.06.2019 11:00:00 (BST)Salsburgh, Grande-Bretagne (99024): Quantités de précipitations: 21.06.2019 11:00:00 - 27.06.2019 11:00:00 (BST)
Date & Time tt [°C] td [°C] ff [km/h] ff [knt] fx [km/h] fx [knt] dd rr [mm]
27.06.2019 11:00:00 - - - - - - - -
27.06.2019 10:00:00 - - - - - - - -
27.06.2019 09:00:00 - - - - - - - -
27.06.2019 08:00:00 - - - - - - - -
27.06.2019 07:00:00 - - - - - - - -
27.06.2019 06:00:00 - - - - - - - -
27.06.2019 05:00:00 - - - - - - - -
27.06.2019 04:00:00 - - - - - - - -
27.06.2019 03:00:00 12,0 9,7 8 4 - - SSE 0,0
27.06.2019 02:00:00 13,2 10,3 4 2 - - S 0,0
27.06.2019 01:00:00 14,6 10,1 4 2 - - WSW 0,0
27.06.2019 00:00:00 15,7 10,7 8 4 - - W 0,0
26.06.2019 23:00:00 15,7 10,8 5 3 - - WSW 0,0
26.06.2019 22:00:00 16,6 9,6 8 4 - - S 0,0
26.06.2019 21:00:00 19,7 9,6 2 1 - - NNW 0,0
26.06.2019 20:00:00 20,5 11,0 9 5 - - WNW 0,0
26.06.2019 19:00:00 20,2 10,6 8 4 - - W 0,0
26.06.2019 18:00:00 19,7 9,7 5 3 - - S 0,0
26.06.2019 17:00:00 19,3 8,9 4 2 - - ESE 0,0
26.06.2019 16:00:00 19,0 9,0 8 4 - - NW 0,0
26.06.2019 15:00:00 18,0 10,4 8 4 - - NW 0,0
26.06.2019 14:00:00 15,9 10,2 5 3 - - NNE 0,0
26.06.2019 13:00:00 14,6 10,0 5 3 - - NW 0,0
26.06.2019 12:00:00 12,9 9,0 5 3 - - ENE 0,0
26.06.2019 11:00:00 12,1 8,6 8 4 - - NE 0,0
26.06.2019 10:00:00 10,7 8,3 8 4 - - E 0,0
26.06.2019 09:00:00 10,2 8,3 11 6 - - E 0,0
26.06.2019 08:00:00 9,9 8,2 11 6 - - E 0,0
26.06.2019 07:00:00 9,6 8,5 15 8 - - E 0,0
26.06.2019 06:00:00 8,0 7,6 18 10 - - E 0,0
26.06.2019 05:00:00 8,3 7,8 21 11 - - E 0,0
26.06.2019 04:00:00 8,7 8,3 13 7 - - E 0,0
26.06.2019 03:00:00 8,4 7,9 13 7 - - ENE 0,0
26.06.2019 02:00:00 9,2 8,3 22 12 - - E 0,0
26.06.2019 01:00:00 10,1 8,8 18 10 - - E 0,0
26.06.2019 00:00:00 10,7 9,1 15 8 - - E 0,0
25.06.2019 23:00:00 10,9 9,3 15 8 - - E 0,0
25.06.2019 22:00:00 11,5 10,0 15 8 - - ENE 0,0
25.06.2019 21:00:00 12,2 10,4 24 13 - - E 0,0
25.06.2019 20:00:00 13,0 10,7 22 12 - - E 0,0
25.06.2019 19:00:00 14,6 11,4 16 9 - - ENE 0,0
25.06.2019 18:00:00 14,8 11,6 18 10 - - E 0,0
25.06.2019 17:00:00 14,9 11,5 21 11 - - E 0,0
25.06.2019 16:00:00 14,2 11,3 21 11 - - E 0,0
25.06.2019 15:00:00 14,7 11,3 18 10 - - E 0,0
25.06.2019 14:00:00 14,6 11,7 26 14 - - E 0,0
25.06.2019 13:00:00 14,7 11,5 22 12 - - E 0,0
25.06.2019 12:00:00 15,2 12,2 21 11 - - ENE 0,0
25.06.2019 11:00:00 14,3 12,3 16 9 - - ENE 0,0
25.06.2019 10:00:00 13,4 12,4 16 9 - - NE 0,0
25.06.2019 09:00:00 12,8 12,5 18 10 - - NE 0,0
25.06.2019 08:00:00 12,5 11,9 16 9 - - ENE 0,0
25.06.2019 07:00:00 12,2 11,9 22 12 - - ENE 0,0
25.06.2019 06:00:00 12,1 12,1 16 9 - - NE 0,0
25.06.2019 05:00:00 12,1 12,1 13 7 - - ENE 0,0
25.06.2019 04:00:00 12,0 12,0 15 8 - - ENE 0,0
25.06.2019 03:00:00 12,0 12,0 15 8 - - E 0,0
25.06.2019 02:00:00 12,0 12,0 16 9 - - E 0,0
25.06.2019 01:00:00 12,1 12,1 11 6 - - ENE 0,0
25.06.2019 00:00:00 12,2 12,2 15 8 - - ENE 0,0
24.06.2019 23:00:00 12,1 12,1 15 8 - - ENE 0,0
24.06.2019 22:00:00 12,1 12,1 16 9 - - E 0,0
24.06.2019 21:00:00 12,0 12,0 22 12 - - E 0,0
24.06.2019 20:00:00 12,0 12,0 13 7 - - ENE 0,2
24.06.2019 19:00:00 12,0 12,0 13 7 - - ENE 0,0
24.06.2019 18:00:00 12,4 12,2 16 9 - - ENE 0,2
24.06.2019 17:00:00 12,6 12,3 15 8 - - NE 0,4
24.06.2019 16:00:00 12,7 12,4 21 11 - - NE 0,0
24.06.2019 15:00:00 12,9 12,9 28 15 - - NE 2,2
24.06.2019 14:00:00 11,9 11,9 26 14 - - NE 0,6
24.06.2019 13:00:00 11,6 11,6 24 13 - - NE 0,0
24.06.2019 12:00:00 11,7 11,7 26 14 - - NE 0,0
24.06.2019 11:00:00 11,3 11,3 26 14 - - ENE 0,2
24.06.2019 10:00:00 11,1 11,1 28 15 - - ENE 0,0
24.06.2019 09:00:00 11,1 11,1 29 16 46 25 ENE 0,0
24.06.2019 08:00:00 11,2 11,2 31 17 - - ENE 0,0
24.06.2019 07:00:00 11,3 11,3 28 15 - - ENE 0,0
24.06.2019 06:00:00 11,2 11,2 31 17 - - ENE 0,2
24.06.2019 05:00:00 11,2 11,2 31 17 - - ENE 2,8
24.06.2019 04:00:00 11,1 11,1 22 12 - - ENE 1,4
24.06.2019 03:00:00 11,0 11,0 26 14 - - ENE 0,8
24.06.2019 02:00:00 11,0 10,6 28 15 - - ENE 0,0
24.06.2019 01:00:00 10,9 9,9 28 15 - - ENE 0,0
24.06.2019 00:00:00 10,9 9,6 26 14 - - ENE 0,0
23.06.2019 23:00:00 11,0 10,1 26 14 - - ENE 0,0
23.06.2019 22:00:00 11,4 9,4 29 16 - - ENE 0,0
23.06.2019 21:00:00 12,8 7,4 28 15 - - ENE 0,0
23.06.2019 20:00:00 14,2 5,6 22 12 - - ENE 0,0
23.06.2019 19:00:00 15,5 6,7 26 14 - - E 0,0
23.06.2019 18:00:00 17,3 8,0 28 15 - - E 0,0
23.06.2019 17:00:00 18,6 7,9 21 11 - - ESE 0,0
23.06.2019 16:00:00 18,3 12,0 22 12 - - ENE 0,0
23.06.2019 15:00:00 18,6 12,3 21 11 - - E 0,0
23.06.2019 14:00:00 17,4 13,0 18 10 - - NE 0,0
23.06.2019 13:00:00 16,2 12,0 18 10 - - ENE 0,0
23.06.2019 12:00:00 17,0 12,4 18 10 - - ENE 0,0
23.06.2019 11:00:00 15,0 11,8 18 10 - - E 0,0
23.06.2019 10:00:00 13,2 11,7 18 10 - - ENE 0,0
23.06.2019 09:00:00 11,4 11,1 21 11 - - ENE 0,0
23.06.2019 08:00:00 11,0 11,0 18 10 - - ENE 0,0
23.06.2019 07:00:00 10,5 10,5 21 11 - - ENE 0,0
23.06.2019 06:00:00 10,1 10,1 22 12 - - E 0,0
23.06.2019 05:00:00 10,3 9,7 18 10 - - E 0,0
23.06.2019 04:00:00 10,4 8,5 18 10 - - E 0,0
23.06.2019 03:00:00 11,2 8,2 18 10 - - E 0,0
23.06.2019 02:00:00 11,8 8,3 15 8 - - E 0,0
23.06.2019 01:00:00 12,6 8,4 13 7 - - ESE 0,0
23.06.2019 00:00:00 12,6 7,9 15 8 - - E 0,0
22.06.2019 23:00:00 12,5 7,6 15 8 - - E 0,0
22.06.2019 22:00:00 13,2 7,6 15 8 - - E 0,0
22.06.2019 21:00:00 14,9 6,1 5 3 - - NNE 0,0
22.06.2019 20:00:00 16,4 6,5 5 3 - - NNW 0,0
22.06.2019 19:00:00 16,0 6,6 4 2 - - ESE 0,0
22.06.2019 18:00:00 15,6 7,3 8 4 - - ESE 0,0
22.06.2019 17:00:00 16,4 5,1 5 3 - - SSE 0,0
22.06.2019 16:00:00 16,0 5,3 8 4 - - WSW 0,0
22.06.2019 15:00:00 15,7 6,1 9 5 - - SW 0,0
22.06.2019 14:00:00 15,5 5,9 11 6 - - S 0,0
22.06.2019 13:00:00 15,6 6,7 11 6 - - S 0,0
22.06.2019 12:00:00 15,1 6,3 9 5 - - SSW 0,0
22.06.2019 11:00:00 14,0 6,8 15 8 - - S 0,0
22.06.2019 10:00:00 14,0 7,4 13 7 - - SSW 0,0
22.06.2019 09:00:00 13,2 8,0 15 8 - - S 0,0
22.06.2019 08:00:00 11,1 6,9 15 8 - - SSE 0,0
22.06.2019 07:00:00 9,5 6,1 16 9 - - SSE 0,0
22.06.2019 06:00:00 8,7 5,3 11 6 - - SSE 0,0
22.06.2019 05:00:00 8,2 4,9 15 8 - - SSE 0,0
22.06.2019 04:00:00 8,0 4,9 11 6 - - SSE 0,0
22.06.2019 03:00:00 7,8 5,0 11 6 - - S 0,0
22.06.2019 02:00:00 7,6 5,2 9 5 - - S 0,0
22.06.2019 01:00:00 6,8 4,9 11 6 - - S 0,0
22.06.2019 00:00:00 7,3 4,9 9 5 - - S 0,0
21.06.2019 23:00:00 8,7 4,7 9 5 - - SW 0,0
21.06.2019 22:00:00 9,2 4,6 13 7 - - SW 0,0
21.06.2019 21:00:00 10,9 5,0 13 7 - - WSW 0,0
21.06.2019 20:00:00 12,3 5,3 16 9 - - WSW 0,0
21.06.2019 19:00:00 13,2 4,5 22 12 - - W 0,0
21.06.2019 18:00:00 13,6 5,4 24 13 - - W 0,0
21.06.2019 17:00:00 14,4 6,5 24 13 - - W 0,0
21.06.2019 16:00:00 13,2 5,2 24 13 - - W 0,0
21.06.2019 15:00:00 14,4 5,5 29 16 - - W 0,0
21.06.2019 14:00:00 14,7 7,0 26 14 - - WSW 0,0
21.06.2019 13:00:00 12,7 6,1 22 12 - - W 0,0
21.06.2019 12:00:00 12,4 7,7 24 13 - - WSW 0,0
21.06.2019 11:00:00 11,5 7,0 28 15 - - WSW 0,0

tt = Température de l'air
td = dewpoint
ff = Vitesse du vent
fx = gusts
dd = Direction du vent
rr = Quantités de précipitations

stations d'obs. à proximité